createdAt,value
2022-12-29T00:00:52.278Z,2.22
2022-12-29T00:03:55.145Z,6.57
2022-12-29T00:06:59.121Z,4.22
2022-12-29T00:10:01.746Z,1.48
2022-12-29T00:13:21.997Z,1.58
2022-12-29T00:16:24.722Z,2.15
2022-12-29T00:19:45.036Z,2.05
2022-12-29T00:23:05.990Z,0.80
2022-12-29T00:26:30.829Z,3.00
2022-12-29T00:29:51.189Z,2.42
2022-12-29T00:33:11.428Z,1.77
2022-12-29T00:36:15.199Z,1.02
2022-12-29T00:39:36.428Z,1.65
2022-12-29T00:42:56.775Z,1.70
2022-12-29T00:45:59.384Z,1.52
2022-12-29T00:49:19.716Z,1.50
2022-12-29T00:52:22.330Z,1.55
2022-12-29T00:55:26.222Z,2.90
2022-12-29T00:58:29.458Z,1.15
2022-12-29T01:01:32.225Z,1.55
2022-12-29T01:04:35.153Z,1.27
2022-12-29T01:07:37.725Z,2.80
2022-12-29T01:10:40.630Z,1.67
2022-12-29T01:13:44.628Z,2.05
2022-12-29T01:16:47.387Z,1.35
2022-12-29T01:19:49.952Z,2.88
2022-12-29T01:22:52.471Z,1.38
2022-12-29T01:25:56.376Z,0.80
2022-12-29T01:28:58.957Z,3.05
2022-12-29T01:32:01.562Z,1.25
2022-12-29T01:35:04.387Z,4.25
2022-12-29T01:38:06.920Z,4.72
2022-12-29T01:41:11.701Z,1.60
2022-12-29T01:45:00.157Z,1.77
2022-12-29T01:48:03.673Z,1.30
2022-12-29T01:51:06.393Z,1.38
2022-12-29T01:54:11.985Z,2.20
2022-12-29T01:57:18.746Z,5.00
2022-12-29T02:00:21.401Z,3.88
2022-12-29T02:03:24.389Z,4.05
2022-12-29T02:06:28.526Z,2.90
2022-12-29T02:09:31.086Z,4.50
2022-12-29T02:12:35.208Z,5.25
2022-12-29T02:15:42.683Z,5.85
2022-12-29T02:21:54.223Z,7.13
2022-12-29T02:25:20.824Z,12.35
2022-12-29T02:28:35.001Z,8.30
2022-12-29T02:31:39.949Z,4.40
2022-12-29T02:34:46.783Z,3.40
2022-12-29T02:37:53.869Z,3.30
2022-12-29T02:40:59.697Z,1.55
2022-12-29T02:44:06.191Z,6.40
2022-12-29T02:47:13.424Z,8.63
2022-12-29T02:50:19.587Z,5.93
2022-12-29T02:53:42.936Z,5.57
2022-12-29T02:56:44.508Z,4.47
2022-12-29T02:59:47.037Z,6.55
2022-12-29T03:03:10.824Z,8.98
2022-12-29T03:06:24.391Z,12.05
2022-12-29T03:09:32.071Z,13.60
2022-12-29T03:12:54.724Z,9.10
2022-12-29T03:16:03.969Z,8.77
2022-12-29T03:19:10.045Z,11.23
2022-12-29T03:22:37.225Z,8.43
2022-12-29T03:25:41.171Z,3.65
2022-12-29T03:28:45.391Z,9.93
2022-12-29T03:31:47.911Z,3.13
2022-12-29T03:34:51.865Z,7.53
2022-12-29T03:37:57.977Z,6.40
2022-12-29T03:41:01.362Z,5.72
2022-12-29T03:44:03.969Z,9.30
2022-12-29T03:47:06.979Z,4.82
2022-12-29T03:50:13.481Z,3.70
2022-12-29T03:53:16.944Z,2.53
2022-12-29T03:56:19.483Z,5.05
2022-12-29T03:59:22.332Z,5.38
2022-12-29T04:02:25.407Z,10.82
2022-12-29T04:05:29.490Z,11.20
2022-12-29T04:08:32.047Z,8.13
2022-12-29T04:11:34.765Z,12.25
2022-12-29T04:14:37.383Z,5.38
2022-12-29T04:17:39.918Z,7.57
2022-12-29T04:21:01.943Z,8.57
2022-12-29T04:24:07.289Z,10.50
2022-12-29T04:27:09.975Z,9.00
2022-12-29T04:30:13.418Z,4.70
2022-12-29T04:33:16.649Z,12.65
2022-12-29T04:36:27.817Z,5.50
2022-12-29T04:39:33.877Z,7.95
2022-12-29T04:42:36.462Z,6.78
2022-12-29T04:45:38.985Z,11.65
2022-12-29T04:48:41.508Z,5.32
2022-12-29T04:51:45.441Z,5.30
2022-12-29T04:54:48.016Z,10.10
2022-12-29T04:57:50.617Z,11.05
2022-12-29T05:00:53.460Z,13.18
2022-12-29T05:03:56.092Z,8.20
2022-12-29T05:07:00.042Z,13.15
2022-12-29T05:10:02.621Z,7.90
2022-12-29T05:13:05.249Z,17.92
2022-12-29T05:16:08.328Z,6.32
2022-12-29T05:19:11.019Z,15.95
2022-12-29T05:22:15.504Z,10.77
2022-12-29T05:25:18.243Z,9.75
2022-12-29T05:28:21.168Z,11.40
2022-12-29T05:31:23.788Z,11.10
2022-12-29T05:34:27.393Z,13.02
2022-12-29T05:37:31.270Z,11.15
2022-12-29T05:40:33.781Z,13.95
2022-12-29T05:43:36.349Z,10.82
2022-12-29T05:46:38.971Z,13.85
2022-12-29T05:49:41.604Z,9.27
2022-12-29T05:52:45.547Z,13.23
2022-12-29T05:55:49.245Z,15.40
2022-12-29T05:58:51.957Z,7.75
2022-12-29T06:01:54.604Z,14.77
2022-12-29T06:04:57.311Z,12.93
2022-12-29T06:08:01.376Z,12.07
2022-12-29T06:11:03.915Z,15.85
2022-12-29T06:14:06.426Z,10.13
2022-12-29T06:17:09.727Z,11.60
2022-12-29T06:20:12.583Z,10.43
2022-12-29T06:23:17.430Z,16.50
2022-12-29T06:26:20.015Z,10.32
2022-12-29T06:29:22.592Z,15.00
2022-12-29T06:32:25.135Z,13.07
2022-12-29T06:35:27.712Z,25.05
2022-12-29T06:38:31.672Z,11.52
2022-12-29T06:41:34.256Z,23.52
2022-12-29T06:44:36.836Z,11.85
2022-12-29T06:47:39.358Z,16.17
2022-12-29T06:50:41.940Z,14.27
2022-12-29T06:53:45.820Z,15.27
2022-12-29T06:56:48.459Z,12.75
2022-12-29T06:59:51.008Z,22.42
2022-12-29T07:02:53.700Z,21.92
2022-12-29T07:05:56.442Z,15.02
2022-12-29T07:09:00.319Z,11.65
2022-12-29T07:12:02.911Z,10.13
2022-12-29T07:15:05.995Z,11.73
2022-12-29T07:18:08.575Z,13.38
2022-12-29T07:21:11.196Z,8.35
2022-12-29T07:24:15.145Z,14.10
2022-12-29T07:27:17.764Z,14.43
2022-12-29T07:30:20.370Z,11.05
2022-12-29T07:33:22.968Z,7.57
2022-12-29T07:36:30.785Z,22.30
2022-12-29T07:39:38.024Z,12.77
2022-12-29T07:42:40.716Z,10.45
2022-12-29T07:45:43.344Z,9.82
2022-12-29T07:48:45.922Z,17.48
2022-12-29T07:51:48.446Z,17.15
2022-12-29T07:54:52.375Z,11.45
2022-12-29T07:57:54.941Z,9.48
2022-12-29T08:00:57.693Z,12.40
2022-12-29T08:04:00.381Z,16.83
2022-12-29T08:07:02.977Z,16.15
2022-12-29T08:10:08.327Z,19.90
2022-12-29T08:13:10.984Z,17.75
2022-12-29T08:16:13.622Z,15.45
2022-12-29T08:19:16.424Z,14.13
2022-12-29T08:22:18.987Z,14.73
2022-12-29T08:25:22.948Z,16.55
2022-12-29T08:28:26.724Z,13.27
2022-12-29T08:31:29.326Z,13.13
2022-12-29T08:34:32.410Z,13.32
2022-12-29T08:37:34.976Z,8.05
2022-12-29T08:40:38.914Z,19.65
2022-12-29T08:43:41.446Z,11.43
2022-12-29T08:46:44.082Z,12.20
2022-12-29T08:49:46.696Z,16.55
2022-12-29T08:52:49.271Z,14.50
2022-12-29T08:56:04.087Z,11.48
2022-12-29T08:59:07.887Z,12.52
2022-12-29T09:02:12.296Z,11.40
2022-12-29T09:05:15.892Z,17.35
2022-12-29T09:08:22.375Z,12.57
2022-12-29T09:11:29.433Z,16.30
2022-12-29T09:14:32.005Z,11.07
2022-12-29T09:17:44.685Z,21.02
2022-12-29T09:20:47.270Z,11.50
2022-12-29T09:23:49.972Z,24.88
2022-12-29T09:26:53.862Z,9.15
2022-12-29T09:29:56.779Z,23.33
2022-12-29T09:32:59.321Z,17.70
2022-12-29T09:36:01.894Z,14.68
2022-12-29T09:39:04.608Z,12.25
2022-12-29T09:42:10.066Z,19.40
2022-12-29T09:45:15.136Z,10.60
2022-12-29T09:48:19.618Z,29.50
2022-12-29T09:51:24.494Z,18.85
2022-12-29T09:54:36.634Z,25.63
2022-12-29T09:57:43.895Z,17.65
2022-12-29T10:00:55.164Z,25.75
2022-12-29T10:03:58.763Z,30.75
2022-12-29T10:07:28.491Z,27.67
2022-12-29T10:10:32.068Z,34.90
2022-12-29T10:13:41.359Z,33.95
2022-12-29T10:16:47.036Z,26.90
2022-12-29T10:20:04.754Z,20.10
2022-12-29T10:23:17.332Z,27.80
2022-12-29T10:26:20.531Z,21.45
2022-12-29T10:29:26.419Z,32.70
2022-12-29T10:32:32.113Z,26.75
2022-12-29T10:35:36.793Z,27.23
2022-12-29T10:38:41.198Z,32.53
2022-12-29T10:41:48.321Z,26.17
2022-12-29T10:44:52.317Z,26.73
2022-12-29T10:47:57.736Z,20.17
2022-12-29T10:51:02.133Z,26.05
2022-12-29T10:54:05.920Z,19.58
2022-12-29T10:57:10.796Z,21.45
2022-12-29T11:00:17.557Z,19.70
2022-12-29T11:03:52.472Z,24.77
2022-12-29T11:06:55.011Z,24.27
2022-12-29T11:09:57.669Z,24.00
2022-12-29T11:13:00.776Z,19.55
2022-12-29T11:16:05.005Z,21.83
2022-12-29T11:19:07.617Z,15.85
2022-12-29T11:22:22.717Z,14.82
2022-12-29T11:25:25.269Z,18.98
2022-12-29T11:28:31.528Z,12.88
2022-12-29T11:31:41.672Z,17.13
2022-12-29T11:34:44.341Z,15.90
2022-12-29T11:37:46.974Z,19.02
2022-12-29T11:40:49.532Z,20.70
2022-12-29T11:43:52.265Z,16.60
2022-12-29T11:46:56.262Z,9.75
2022-12-29T11:50:00.232Z,8.93
2022-12-29T11:53:04.986Z,19.98
2022-12-29T11:56:10.133Z,18.70
2022-12-29T11:59:38.877Z,9.23
2022-12-29T12:02:53.015Z,31.45
2022-12-29T12:05:57.765Z,16.35
2022-12-29T12:09:02.860Z,16.50
2022-12-29T12:12:05.683Z,12.70
2022-12-29T12:15:10.522Z,26.05
2022-12-29T12:18:18.376Z,14.52
2022-12-29T12:21:24.533Z,18.67
2022-12-29T12:24:38.331Z,10.48
2022-12-29T12:27:42.548Z,11.25
2022-12-29T12:30:46.747Z,16.80
2022-12-29T12:33:52.778Z,13.32
2022-12-29T12:37:02.152Z,12.35
2022-12-29T12:40:29.964Z,11.27
2022-12-29T12:43:45.073Z,14.70
2022-12-29T12:47:12.193Z,9.23
2022-12-29T12:50:21.219Z,12.02
2022-12-29T12:53:51.378Z,16.50
2022-12-29T12:56:59.455Z,13.90
2022-12-29T13:00:04.696Z,12.07
2022-12-29T13:03:10.290Z,19.42
2022-12-29T13:06:20.254Z,22.42
2022-12-29T13:09:35.292Z,25.45
2022-12-29T13:12:40.578Z,18.38
2022-12-29T13:15:45.736Z,15.35
2022-12-29T13:18:54.915Z,14.75
2022-12-29T13:22:06.657Z,12.25
2022-12-29T13:25:20.202Z,20.15
2022-12-29T13:28:25.195Z,20.75
2022-12-29T13:31:31.749Z,20.02
2022-12-29T13:34:38.483Z,19.83
2022-12-29T13:37:48.727Z,22.75
2022-12-29T13:40:52.757Z,9.05
2022-12-29T13:43:55.277Z,14.63
2022-12-29T13:46:58.385Z,15.88
2022-12-29T13:50:01.649Z,9.40
2022-12-29T13:53:08.338Z,11.82
2022-12-29T13:56:13.726Z,7.68
2022-12-29T13:59:20.107Z,13.95
2022-12-29T14:02:27.947Z,11.75
2022-12-29T14:05:31.963Z,15.45
2022-12-29T14:08:36.538Z,17.60
2022-12-29T14:11:40.025Z,17.00
2022-12-29T14:14:42.557Z,16.45
2022-12-29T14:17:45.084Z,12.63
2022-12-29T14:20:54.135Z,14.85
2022-12-29T14:24:30.001Z,11.25
2022-12-29T14:27:54.286Z,10.52
2022-12-29T14:30:57.554Z,12.45
2022-12-29T14:34:39.175Z,4.38
2022-12-29T14:37:41.835Z,16.08
2022-12-29T14:40:45.851Z,17.45
2022-12-29T14:44:02.293Z,12.63
2022-12-29T14:47:07.428Z,13.48
2022-12-29T14:50:14.407Z,11.95
2022-12-29T14:53:44.339Z,11.38
2022-12-29T14:56:48.285Z,14.27
2022-12-29T14:59:50.930Z,12.68
2022-12-29T15:02:57.016Z,8.52
2022-12-29T15:06:04.780Z,17.63
2022-12-29T15:09:15.563Z,9.35
2022-12-29T15:12:22.348Z,14.30
2022-12-29T15:15:26.164Z,10.77
2022-12-29T15:18:30.819Z,13.80
2022-12-29T15:21:34.488Z,10.18
2022-12-29T15:24:42.617Z,14.07
2022-12-29T15:27:50.349Z,10.55
2022-12-29T15:33:56.927Z,6.90
2022-12-29T15:37:00.454Z,16.90
2022-12-29T15:40:03.081Z,26.52
2022-12-29T15:43:16.568Z,15.05
2022-12-29T15:46:19.129Z,17.27
2022-12-29T15:49:24.094Z,20.38
2022-12-29T15:52:30.415Z,8.70
2022-12-29T15:55:34.759Z,13.05
2022-12-29T15:58:45.336Z,10.27
2022-12-29T16:01:47.972Z,11.45
2022-12-29T16:05:16.141Z,20.70
2022-12-29T16:08:23.913Z,9.18
2022-12-29T16:11:27.451Z,19.23
2022-12-29T16:14:33.597Z,13.02
2022-12-29T16:17:47.743Z,11.95
2022-12-29T16:20:50.332Z,18.63
2022-12-29T16:23:53.532Z,7.90
2022-12-29T16:26:59.476Z,18.45
2022-12-29T16:30:06.494Z,10.90
2022-12-29T16:33:40.586Z,11.52
2022-12-29T16:36:53.564Z,7.90
2022-12-29T16:39:56.084Z,16.67
2022-12-29T16:42:59.818Z,13.40
2022-12-29T16:46:23.038Z,4.82
2022-12-29T16:49:25.959Z,21.73
2022-12-29T16:52:32.172Z,14.65
2022-12-29T16:55:34.779Z,17.35
2022-12-29T16:58:37.315Z,12.98
2022-12-29T17:01:41.299Z,12.20
2022-12-29T17:04:44.789Z,13.80
2022-12-29T17:07:47.409Z,9.30
2022-12-29T17:11:07.730Z,7.82
2022-12-29T17:14:21.574Z,13.90
2022-12-29T17:17:31.980Z,12.23
2022-12-29T17:20:34.825Z,8.73
2022-12-29T17:23:37.363Z,8.35
2022-12-29T17:26:39.889Z,9.23
2022-12-29T17:29:42.482Z,13.50
2022-12-29T17:32:49.570Z,7.65
2022-12-29T17:35:55.622Z,10.38
2022-12-29T17:38:58.639Z,13.65
2022-12-29T17:42:01.211Z,14.40
2022-12-29T17:45:03.995Z,11.90
2022-12-29T17:48:12.452Z,12.05
2022-12-29T17:51:15.022Z,18.42
2022-12-29T17:54:22.092Z,16.67
2022-12-29T17:57:24.707Z,13.02
2022-12-29T18:00:28.239Z,20.33
2022-12-29T18:03:33.693Z,12.80
2022-12-29T18:06:36.583Z,12.30
2022-12-29T18:09:39.168Z,15.88
2022-12-29T18:12:42.382Z,17.38
2022-12-29T18:15:45.005Z,14.95
2022-12-29T18:18:48.900Z,17.50
2022-12-29T18:21:51.505Z,18.77
2022-12-29T18:24:54.079Z,19.95
2022-12-29T18:27:56.810Z,16.30
2022-12-29T18:31:00.911Z,17.42
2022-12-29T18:34:08.648Z,16.63
2022-12-29T18:37:11.350Z,13.38
2022-12-29T18:40:13.998Z,17.33
2022-12-29T18:43:16.672Z,19.70
2022-12-29T18:46:23.263Z,20.90
2022-12-29T18:49:27.687Z,25.42
2022-12-29T18:52:30.285Z,22.35
2022-12-29T18:55:33.002Z,22.73
2022-12-29T18:58:35.665Z,16.70
2022-12-29T19:01:38.421Z,18.70
2022-12-29T19:04:42.402Z,14.75
2022-12-29T19:07:44.935Z,14.68
2022-12-29T19:10:47.754Z,10.40
2022-12-29T19:13:50.336Z,22.58
2022-12-29T19:16:52.921Z,11.52
2022-12-29T19:19:57.303Z,35.38
2022-12-29T19:23:00.508Z,9.45
2022-12-29T19:26:03.094Z,19.25
2022-12-29T19:29:06.408Z,14.73
2022-12-29T19:32:09.008Z,23.85
2022-12-29T19:35:12.926Z,23.83
2022-12-29T19:38:15.587Z,15.65
2022-12-29T19:41:18.170Z,19.63
2022-12-29T19:44:20.773Z,22.63
2022-12-29T19:47:28.419Z,20.35
2022-12-29T19:50:35.633Z,16.75
2022-12-29T19:53:38.337Z,16.52
2022-12-29T19:56:42.919Z,19.45
2022-12-29T19:59:45.454Z,20.98
2022-12-29T20:02:48.152Z,17.52
2022-12-29T20:05:52.507Z,23.42
2022-12-29T20:08:55.481Z,23.10
2022-12-29T20:11:58.027Z,21.58
2022-12-29T20:15:00.600Z,23.75
2022-12-29T20:18:22.432Z,40.92
2022-12-29T20:21:27.029Z,28.38
2022-12-29T20:24:29.664Z,17.65
2022-12-29T20:27:32.535Z,27.30
2022-12-29T20:30:35.061Z,26.25
2022-12-29T20:33:37.641Z,21.73
2022-12-29T20:36:42.838Z,26.80
2022-12-29T20:39:45.459Z,30.88
2022-12-29T20:42:48.016Z,19.50
2022-12-29T20:45:50.623Z,20.45
2022-12-29T20:48:53.363Z,22.55
2022-12-29T20:52:06.101Z,27.15
2022-12-29T20:55:09.734Z,21.48
2022-12-29T20:58:27.726Z,27.15
2022-12-29T21:05:05.035Z,18.33
2022-12-29T21:07:59.394Z,24.77
2022-12-29T21:11:02.083Z,27.67
2022-12-29T21:14:04.658Z,18.33
2022-12-29T21:17:07.663Z,20.60
2022-12-29T21:20:19.438Z,17.33
2022-12-29T21:23:23.397Z,22.38
2022-12-29T21:26:25.920Z,27.65
2022-12-29T21:29:28.528Z,22.25
2022-12-29T21:32:31.063Z,9.98
2022-12-29T21:35:35.803Z,19.27
2022-12-29T21:38:39.681Z,23.48
2022-12-29T21:41:42.422Z,23.45
2022-12-29T21:45:02.698Z,21.73
2022-12-29T21:48:28.742Z,17.48
2022-12-29T21:51:48.802Z,24.27
2022-12-29T21:55:01.856Z,27.00
2022-12-29T21:58:21.964Z,19.45
2022-12-29T22:01:42.458Z,21.67
2022-12-29T22:05:02.772Z,29.15
2022-12-29T22:08:23.178Z,21.67
2022-12-29T22:11:44.686Z,19.92
2022-12-29T22:14:47.219Z,20.95
2022-12-29T22:17:50.629Z,19.45
2022-12-29T22:20:53.214Z,15.57
2022-12-29T22:23:55.808Z,21.88
2022-12-29T22:26:59.772Z,12.55
2022-12-29T22:30:02.347Z,29.33
2022-12-29T22:33:05.076Z,15.60
2022-12-29T22:36:08.347Z,24.73
2022-12-29T22:39:10.913Z,16.67
2022-12-29T22:42:14.797Z,15.77
2022-12-29T22:45:17.730Z,18.42
2022-12-29T22:48:20.275Z,16.15
2022-12-29T22:51:22.824Z,16.38
2022-12-29T22:54:25.400Z,14.82
2022-12-29T22:57:30.383Z,16.10
2022-12-29T23:00:33.763Z,12.98
2022-12-29T23:03:36.926Z,18.73
2022-12-29T23:06:39.981Z,24.90
2022-12-29T23:09:42.551Z,14.90
2022-12-29T23:12:46.440Z,20.38
2022-12-29T23:15:49.146Z,18.42
2022-12-29T23:18:51.822Z,14.90
2022-12-29T23:21:54.437Z,25.00
2022-12-29T23:24:57.003Z,24.95
2022-12-29T23:28:00.951Z,16.08
2022-12-29T23:31:03.628Z,12.35
2022-12-29T23:34:06.639Z,20.33
2022-12-29T23:37:09.239Z,23.92
2022-12-29T23:40:12.958Z,23.20
2022-12-29T23:43:16.853Z,14.93
2022-12-29T23:46:20.396Z,12.02
2022-12-29T23:49:23.030Z,23.02
2022-12-29T23:52:25.617Z,15.25
2022-12-29T23:55:28.209Z,22.45
2022-12-29T23:58:32.127Z,15.45
